createdAt,value
2022-11-20T00:00:02.543Z,100685.31
2022-11-20T00:05:37.150Z,100686.16
2022-11-20T00:10:44.118Z,100682.75
2022-11-20T00:15:50.899Z,100686.13
2022-11-20T00:21:05.643Z,100678.47
2022-11-20T00:26:14.877Z,100675.84
2022-11-20T00:31:21.400Z,100675.03
2022-11-20T00:36:31.912Z,100678.28
2022-11-20T00:41:38.869Z,100672.31
2022-11-20T00:46:46.803Z,100673.19
2022-11-20T00:51:54.713Z,100667.31
2022-11-20T00:57:01.384Z,100676.03
2022-11-20T01:02:07.893Z,100669.34
2022-11-20T01:07:16.139Z,100678.91
2022-11-20T01:12:22.867Z,100677.31
2022-11-20T01:17:30.440Z,100667.13
2022-11-20T01:22:38.762Z,100662.88
2022-11-20T01:27:45.457Z,100654.31
2022-11-20T01:32:51.722Z,100651.03
2022-11-20T01:37:59.573Z,100650.19
2022-11-20T01:43:23.593Z,100658.81
2022-11-20T01:48:36.975Z,100646.91
2022-11-20T01:53:45.752Z,100651.19
2022-11-20T01:58:57.094Z,100649.56
2022-11-20T02:04:04.369Z,100650.50
2022-11-20T02:09:13.924Z,100649.75
2022-11-20T02:14:20.344Z,100646.44
2022-11-20T02:19:32.600Z,100642.19
2022-11-20T02:24:40.761Z,100633.84
2022-11-20T02:29:53.685Z,100638.97
2022-11-20T02:35:00.264Z,100633.91
2022-11-20T02:40:10.703Z,100631.41
2022-11-20T02:45:18.853Z,100631.44
2022-11-20T02:50:25.385Z,100635.78
2022-11-20T02:55:33.395Z,100627.25
2022-11-20T03:00:39.910Z,100623.91
2022-11-20T03:05:46.185Z,100624.78
2022-11-20T03:10:55.136Z,100613.75
2022-11-20T03:16:01.061Z,100614.66
2022-11-20T03:21:07.883Z,100617.19
2022-11-20T03:26:20.129Z,100614.69
2022-11-20T03:31:29.358Z,100618.09
2022-11-20T03:36:36.550Z,100623.25
2022-11-20T03:41:45.169Z,100614.75
2022-11-20T03:46:51.670Z,100619.00
2022-11-20T03:51:58.052Z,100621.56
2022-11-20T03:57:05.658Z,100627.47
2022-11-20T04:02:12.374Z,100623.91
2022-11-20T04:07:18.888Z,100626.25
2022-11-20T04:12:26.858Z,100623.63
2022-11-20T04:17:33.497Z,100628.03
2022-11-20T04:22:39.622Z,100617.06
2022-11-20T04:27:48.240Z,100609.44
2022-11-20T04:32:54.903Z,100617.97
2022-11-20T04:38:00.938Z,100603.53
2022-11-20T04:43:09.032Z,100604.44
2022-11-20T04:48:15.214Z,100596.75
2022-11-20T04:53:22.230Z,100596.78
2022-11-20T04:58:30.040Z,100603.59
2022-11-20T05:03:39.801Z,100602.66
2022-11-20T05:08:49.002Z,100580.59
2022-11-20T05:13:57.428Z,100585.53
2022-11-20T05:19:04.382Z,100582.94
2022-11-20T05:24:11.045Z,100580.31
2022-11-20T05:29:19.113Z,100584.50
2022-11-20T05:34:26.008Z,100577.66
2022-11-20T05:39:32.183Z,100573.47
2022-11-20T05:44:40.119Z,100575.13
2022-11-20T05:49:46.521Z,100565.72
2022-11-20T05:54:53.180Z,100575.06
2022-11-20T06:00:00.916Z,100581.00
2022-11-20T06:05:08.552Z,100588.56
2022-11-20T06:10:15.074Z,100590.34
2022-11-20T06:15:22.961Z,100593.75
2022-11-20T06:20:29.365Z,100576.59
2022-11-20T06:25:35.806Z,100573.31
2022-11-20T06:30:48.356Z,100576.81
2022-11-20T06:35:59.709Z,100575.09
2022-11-20T06:41:08.080Z,100582.00
2022-11-20T06:46:18.907Z,100581.28
2022-11-20T06:51:25.199Z,100586.53
2022-11-20T06:56:31.558Z,100584.88
2022-11-20T07:01:39.611Z,100568.75
2022-11-20T07:06:45.934Z,100564.53
2022-11-20T07:11:52.058Z,100552.66
2022-11-20T07:16:59.628Z,100550.88
2022-11-20T07:22:05.832Z,100547.47
2022-11-20T07:27:11.998Z,100538.94
2022-11-20T07:32:19.773Z,100536.38
2022-11-20T07:37:25.892Z,100538.09
2022-11-20T07:42:32.689Z,100529.56
2022-11-20T07:47:43.302Z,100525.22
2022-11-20T07:52:53.545Z,100522.66
2022-11-20T07:58:00.267Z,100532.13
2022-11-20T08:03:09.378Z,100534.78
2022-11-20T08:08:16.009Z,100543.38
2022-11-20T08:13:39.584Z,100532.50
2022-11-20T08:18:47.403Z,100533.63
2022-11-20T08:23:53.751Z,100513.38
2022-11-20T08:29:01.350Z,100515.34
2022-11-20T08:34:09.920Z,100512.88
2022-11-20T08:39:17.584Z,100506.22
2022-11-20T08:44:23.851Z,100497.72
2022-11-20T08:49:31.705Z,100501.19
2022-11-20T08:54:37.773Z,100502.06
2022-11-20T09:00:04.244Z,100503.81
2022-11-20T09:05:12.252Z,100502.19
2022-11-20T09:10:25.796Z,100503.84
2022-11-20T09:15:32.086Z,100485.22
2022-11-20T09:20:39.776Z,100478.47
2022-11-20T09:25:46.681Z,100472.44
2022-11-20T09:30:53.223Z,100464.03
2022-11-20T09:36:01.085Z,100468.41
2022-11-20T09:41:09.914Z,100463.25
2022-11-20T09:46:24.544Z,100460.72
2022-11-20T09:51:46.302Z,100459.78
2022-11-20T09:56:57.977Z,100464.03
2022-11-20T10:02:16.059Z,100463.09
2022-11-20T10:07:33.260Z,100467.41
2022-11-20T10:12:58.301Z,100459.72
2022-11-20T10:18:26.230Z,100458.78
2022-11-20T10:24:04.581Z,100450.31
2022-11-20T10:29:16.319Z,100451.25
2022-11-20T10:34:29.818Z,100457.31
2022-11-20T10:39:45.340Z,100456.53
2022-11-20T10:45:06.349Z,100447.22
2022-11-20T10:50:22.611Z,100450.72
2022-11-20T10:55:43.602Z,100437.19
2022-11-20T11:00:50.938Z,100437.28
2022-11-20T11:06:06.644Z,100430.50
2022-11-20T11:11:25.342Z,100426.31
2022-11-20T11:16:31.915Z,100422.13
2022-11-20T11:21:42.801Z,100411.94
2022-11-20T11:27:00.461Z,100403.41
2022-11-20T11:32:09.722Z,100406.94
2022-11-20T11:37:22.881Z,100390.78
2022-11-20T11:42:32.553Z,100388.31
2022-11-20T11:47:48.315Z,100383.22
2022-11-20T11:53:11.726Z,100377.34
2022-11-20T11:58:43.264Z,100371.47
2022-11-20T12:04:05.063Z,100369.81
2022-11-20T12:09:14.753Z,100362.31
2022-11-20T12:14:31.131Z,100363.34
2022-11-20T12:19:38.453Z,100358.38
2022-11-20T12:25:00.576Z,100349.03
2022-11-20T12:30:17.611Z,100345.69
2022-11-20T12:35:51.999Z,100348.34
2022-11-20T12:41:08.729Z,100333.81
2022-11-20T12:46:33.409Z,100328.78
2022-11-20T12:52:07.161Z,100330.59
2022-11-20T12:57:26.607Z,100320.38
2022-11-20T13:03:01.042Z,100311.06
2022-11-20T13:08:21.325Z,100317.94
2022-11-20T13:13:40.696Z,100315.41
2022-11-20T13:18:49.700Z,100308.63
2022-11-20T13:24:08.544Z,100304.38
2022-11-20T13:29:21.041Z,100295.88
2022-11-20T13:34:31.934Z,100286.47
2022-11-20T13:39:39.916Z,100277.91
2022-11-20T13:44:50.789Z,100269.31
2022-11-20T13:50:03.023Z,100271.03
2022-11-20T13:55:23.996Z,100265.91
2022-11-20T14:00:32.233Z,100269.28
2022-11-20T14:05:52.023Z,100265.81
2022-11-20T14:11:19.685Z,100258.94
2022-11-20T14:16:31.872Z,100260.59
2022-11-20T14:21:41.475Z,100262.25
2022-11-20T14:26:51.234Z,100255.41
2022-11-20T14:31:59.976Z,100258.78
2022-11-20T14:37:16.815Z,100246.78
2022-11-20T14:42:28.337Z,100249.34
2022-11-20T14:47:35.406Z,100254.44
2022-11-20T14:52:55.176Z,100256.09
2022-11-20T14:58:06.677Z,100252.63
2022-11-20T15:03:19.886Z,100257.66
2022-11-20T15:08:29.616Z,100253.38
2022-11-20T15:13:41.194Z,100254.19
2022-11-20T15:18:48.647Z,100244.69
2022-11-20T15:23:57.693Z,100257.41
2022-11-20T15:29:05.359Z,100251.31
2022-11-20T15:34:15.149Z,100247.84
2022-11-20T15:39:25.221Z,100239.22
2022-11-20T15:44:32.812Z,100229.84
2022-11-20T15:49:40.682Z,100217.06
2022-11-20T15:54:50.406Z,100213.69
2022-11-20T16:00:01.700Z,100212.88
2022-11-20T16:05:19.642Z,100220.50
2022-11-20T16:10:28.708Z,100218.75
2022-11-20T16:15:49.448Z,100216.16
2022-11-20T16:20:59.245Z,100212.69
2022-11-20T16:26:15.436Z,100209.22
2022-11-20T16:31:23.986Z,100214.19
2022-11-20T16:36:33.026Z,100220.91
2022-11-20T16:41:42.761Z,100222.53
2022-11-20T16:46:50.746Z,100230.97
2022-11-20T16:51:58.572Z,100229.22
2022-11-20T16:57:09.377Z,100225.66
2022-11-20T17:02:16.842Z,100219.63
2022-11-20T17:07:24.498Z,100217.81
2022-11-20T17:12:34.073Z,100214.69
2022-11-20T17:17:42.126Z,100206.22
2022-11-20T17:22:50.416Z,100196.78
2022-11-20T17:28:00.550Z,100199.31
2022-11-20T17:33:08.552Z,100207.81
2022-11-20T17:38:16.157Z,100200.88
2022-11-20T17:43:29.306Z,100187.09
2022-11-20T17:48:43.143Z,100180.16
2022-11-20T17:53:54.159Z,100174.13
2022-11-20T17:59:07.181Z,100173.09
2022-11-20T18:04:16.743Z,100178.16
2022-11-20T18:09:26.849Z,100174.63
2022-11-20T18:14:37.170Z,100173.72
2022-11-20T18:20:07.099Z,100179.59
2022-11-20T18:25:16.132Z,100176.16
2022-11-20T18:30:25.216Z,100166.72
2022-11-20T18:35:33.027Z,100160.75
2022-11-20T18:40:40.159Z,100146.25
2022-11-20T18:45:49.406Z,100147.75
2022-11-20T18:50:58.074Z,100148.63
2022-11-20T18:56:08.146Z,100146.00
2022-11-20T19:01:18.018Z,100141.69
2022-11-20T19:06:26.611Z,100134.81
2022-11-20T19:11:35.670Z,100122.66
2022-11-20T19:16:46.040Z,100116.72
2022-11-20T19:21:54.949Z,100117.63
2022-11-20T19:27:03.683Z,100115.00
2022-11-20T19:32:13.751Z,100105.53
2022-11-20T19:37:21.123Z,100108.91
2022-11-20T19:42:29.488Z,100112.16
2022-11-20T19:53:08.390Z,100111.19
2022-11-20T19:58:16.818Z,100108.56
2022-11-20T20:03:30.141Z,100108.44
2022-11-20T20:08:38.465Z,100118.63
2022-11-20T20:13:48.554Z,100120.16
2022-11-20T20:19:02.757Z,100116.53
2022-11-20T20:24:14.985Z,100121.72
2022-11-20T20:29:25.330Z,100119.03
2022-11-20T20:34:34.911Z,100105.88
2022-11-20T20:39:41.870Z,100102.41
2022-11-20T20:45:09.159Z,100094.59
2022-11-20T20:50:19.495Z,100099.16
2022-11-20T20:55:27.067Z,100097.09
2022-11-20T21:00:35.175Z,100092.44
2022-11-20T21:05:47.975Z,100098.47
2022-11-20T21:10:56.789Z,100098.38
2022-11-20T21:16:04.473Z,100103.09
2022-11-20T21:21:35.586Z,100103.19
2022-11-20T21:26:43.038Z,100094.75
2022-11-20T21:31:51.399Z,100093.59
2022-11-20T21:36:59.433Z,100091.13
2022-11-20T21:42:06.525Z,100078.72
2022-11-20T21:47:13.832Z,100085.50
2022-11-20T21:52:21.870Z,100094.34
2022-11-20T21:57:28.119Z,100100.19
2022-11-20T22:02:34.435Z,100096.63
2022-11-20T22:07:46.092Z,100100.59
2022-11-20T22:12:52.628Z,100100.69
2022-11-20T22:18:14.319Z,100089.69
2022-11-20T22:23:22.411Z,100097.75
2022-11-20T22:28:28.568Z,100100.44
2022-11-20T22:33:37.821Z,100087.88
2022-11-20T22:38:46.016Z,100088.31
2022-11-20T22:43:56.905Z,100091.97
2022-11-20T22:49:05.639Z,100095.59
2022-11-20T22:54:14.162Z,100099.59
2022-11-20T22:59:20.297Z,100096.00
2022-11-20T23:04:26.814Z,100107.16
2022-11-20T23:09:34.645Z,100100.66
2022-11-20T23:14:40.945Z,100099.66
2022-11-20T23:19:47.333Z,100092.16
2022-11-20T23:24:55.045Z,100094.13
2022-11-20T23:30:01.358Z,100093.59
2022-11-20T23:35:10.921Z,100090.34
2022-11-20T23:40:19.023Z,100093.13
2022-11-20T23:45:25.476Z,100094.28
2022-11-20T23:50:31.913Z,100089.59
2022-11-20T23:55:40.158Z,100098.13
